Date,TemperatureHighF,TemperatureAvgF,TemperatureLowF,DewpointHighF,DewpointAvgF,DewpointLowF,HumidityHigh,HumidityAvg,HumidityLow,PressureMaxIn,PressureMinIn,WindSpeedMaxMPH,WindSpeedAvgMPH,GustSpeedMaxMPH,PrecipitationSumIn
2013-1-1,23,22,22,14,13,12,70,68,66,30.04,30.02,0,0,0,0.00
2013-1-2,27,26,25,20,19,17,77,73,69,30.05,29.98,3,0,3,0.00
2013-1-3,32,28,26,24,21,20,79,75,70,30.02,29.91,5,0,5,0.00
2013-1-4,33,28,26,27,22,19,78,75,74,30.04,29.85,13,2,15,0.00
2013-1-5,37,32,24,31,26,18,81,76,70,30.12,29.81,8,0,8,0.02
2013-1-6,36,32,26,29,25,17,77,74,70,30.19,29.75,4,0,4,0.02
2013-1-7,39,34,24,29,25,17,76,71,64,30.18,29.86,14,3,24,0.04
2013-1-8,42,36,31,32,29,25,81,74,66,30.07,29.86,8,1,14,0.04
2013-1-9,40,38,35,32,30,26,75,71,67,30.35,29.76,14,4,16,0.00
2013-1-10,42,35,29,30,26,23,81,70,57,30.45,29.98,8,1,17,0.00
2013-1-11,47,41,36,43,36,27,87,84,62,29.98,29.57,10,1,17,0.30
2013-1-12,51,45,35,45,37,26,100,76,66,29.90,29.54,14,2,21,0.02
2013-1-13,34,31,26,28,25,18,80,76,71,29.95,29.80,6,0,7,0.00
2013-1-14,27,24,22,19,15,14,74,69,64,30.30,29.95,8,1,8,0.00
2013-1-15,31,28,19,20,18,12,74,65,61,30.29,29.99,6,1,6,0.00
2013-1-16,33,30,27,26,22,18,82,72,65,29.99,29.60,15,2,20,0.00
2013-1-17,27,20,16,19,10,4,71,63,58,30.28,29.92,7,1,7,0.00
2013-1-18,40,25,16,33,16,5,79,70,60,30.30,29.69,8,1,11,0.10
2013-1-19,40,36,30,35,31,20,84,80,70,29.77,29.43,9,1,25,0.20
2013-1-20,28,18,16,20,9,6,75,66,61,30.11,29.53,13,2,19,0.02
2013-1-21,15,9,2,15,1,-6,100,68,63,30.06,29.93,9,1,11,0.00
2013-1-22,10,5,2,2,-3,-6,72,68,66,30.19,30.05,13,1,13,0.00
2013-1-23,18,14,10,12,5,1,78,69,61,30.17,29.98,8,1,8,0.00
2013-1-24,19,15,12,11,7,3,76,70,63,30.55,30.13,6,0,6,0.00
2013-1-25,23,18,13,16,11,4,79,74,65,30.37,29.87,8,0,8,0.00
2013-1-26,33,26,22,23,18,15,78,73,65,30.32,29.98,1,0,1,0.00
2013-1-27,34,29,24,24,22,18,83,75,63,30.32,29.94,4,0,7,0.00
2013-1-28,36,33,28,31,29,24,85,84,83,29.94,29.75,0,0,0,0.00
2013-1-29,52,40,33,49,36,29,88,86,84,29.91,29.44,14,1,14,0.57
2013-1-30,36,32,25,33,28,20,87,86,83,29.45,29.14,4,0,6,0.63
2013-1-31,24,20,17,20,13,10,84,75,70,29.84,29.25,0,0,0,0.00
2013-2-1,17,15,11,10,8,3,75,73,70,30.09,29.83,6,0,9,0.00
2013-2-2,24,16,10,14,8,3,76,71,62,30.05,29.95,1,0,6,0.00
2013-2-3,21,17,14,13,9,7,78,71,66,29.95,29.79,4,0,6,0.00
2013-2-4,25,16,6,12,6,-1,74,66,56,29.94,29.87,3,0,3,0.00
2013-2-5,25,18,6,20,12,0,80,75,70,29.95,29.65,1,0,3,0.00
2013-2-6,32,24,16,20,15,9,79,69,59,30.17,29.95,3,0,3,0.00
2013-2-7,32,29,26,27,24,21,83,82,80,30.11,29.97,3,0,6,0.00
2013-2-8,28,25,17,22,19,11,84,79,72,30.33,30.01,5,0,5,0.00
2013-2-9,34,20,7,22,12,2,80,73,59,30.34,30.11,2,0,4,0.00
2013-2-10,40,31,26,35,26,19,86,79,72,30.11,29.40,19,2,19,0.00
2013-2-11,42,36,30,38,31,22,86,82,71,29.76,29.31,9,1,9,0.22
2013-2-12,30,30,30,22,22,22,71,71,71,29.76,29.76,0,0,1,0.00
2013-2-13,40,36,33,31,29,27,80,75,69,29.67,29.62,8,1,9,0.04
2013-2-14,35,32,25,31,28,19,85,84,79,29.86,29.54,1,0,2,0.08
2013-2-15,28,24,20,19,16,13,78,73,66,30.07,29.86,4,0,4,0.02
2013-2-16,25,20,17,15,11,7,77,69,61,30.09,29.99,1,0,3,0.00
2013-2-17,26,19,13,15,11,7,77,71,60,30.13,30.00,3,0,6,0.00
2013-2-18,44,32,20,34,22,12,84,65,54,30.01,29.31,8,1,8,0.02
2013-2-19,40,27,16,36,22,9,85,80,73,29.87,29.20,8,2,14,0.18
2013-2-20,17,17,17,10,10,10,73,73,73,29.88,29.87,2,1,2,0.00
2013-2-21,23,20,17,16,13,11,79,76,72,30.32,30.21,3,0,6,0.00
2013-2-22,29,26,20,25,20,12,84,80,72,30.21,29.75,12,2,16,0.00
2013-2-23,34,30,26,29,24,21,85,80,71,29.80,29.70,7,1,7,0.00
2013-2-24,41,34,30,31,27,25,83,77,66,30.08,29.77,4,0,4,0.00
2013-2-25,42,33,25,30,26,20,83,75,61,30.14,30.06,6,0,7,0.00
2013-2-26,40,34,29,28,25,21,80,70,60,30.10,29.70,9,3,24,0.02
2013-2-27,36,33,32,30,28,26,86,82,75,29.70,29.59,6,0,8,0.02
2013-2-28,34,32,28,30,26,20,86,79,72,30.04,29.67,9,1,11,0.00
2013-3-1,29,26,23,20,18,16,77,72,69,30.18,30.04,6,0,7,0.00
2013-3-2,25,24,24,17,16,16,73,72,71,30.14,30.13,0,0,0,0.00
2013-3-3,31,27,24,20,18,15,72,67,61,30.06,30.02,2,0,2,0.00
2013-3-4,33,26,19,22,17,12,75,69,62,30.12,30.06,4,0,4,0.00
2013-3-5,39,26,16,26,18,9,77,71,57,30.10,29.93,8,1,8,0.00
2013-3-6,42,33,28,32,26,22,81,76,67,30.23,30.02,3,0,6,0.00
2013-3-7,37,30,26,25,21,19,80,70,61,30.39,30.23,3,0,3,0.00
2013-3-8,38,29,20,26,21,14,79,71,59,30.45,30.30,6,0,10,0.00
2013-3-9,43,35,24,31,25,18,82,69,53,30.32,29.87,6,1,10,0.30
2013-3-10,40,37,35,35,32,31,86,84,80,29.87,29.73,4,0,4,1.85
2013-3-11,43,38,32,39,34,28,87,86,82,29.73,29.42,6,0,6,0.46
2013-3-12,34,30,26,28,24,17,85,76,68,29.84,29.53,6,0,6,0.02
2013-3-13,36,28,24,23,19,15,77,66,53,30.17,29.83,6,0,7,0.02
2013-3-14,39,31,25,25,20,16,73,64,56,30.19,29.95,8,1,11,0.02
2013-3-15,39,34,26,29,24,16,80,69,55,29.95,29.82,9,2,11,0.02
2013-3-16,33,26,20,21,16,11,78,68,59,29.98,29.84,0,0,4,0.02
2013-3-17,30,25,20,19,13,9,72,60,51,30.27,29.98,8,0,8,0.02
2013-3-18,41,28,17,27,18,7,81,67,45,30.12,29.44,9,1,13,0.00
2013-3-19,31,27,22,26,20,17,81,75,66,29.81,29.43,8,2,14,0.00
2013-3-20,33,26,21,18,15,12,72,63,52,29.88,29.80,8,2,10,0.00
2013-3-21,34,28,24,25,20,16,78,71,63,29.94,29.81,10,1,11,0.00
2013-3-22,37,31,26,27,23,18,77,71,64,30.01,29.91,3,0,5,0.02
2013-3-23,41,34,29,31,25,21,77,71,64,30.09,30.01,4,0,6,0.04
2013-3-24,40,34,30,29,25,23,77,70,60,30.05,29.80,4,1,7,0.02
2013-3-25,36,33,31,28,25,24,77,74,71,29.99,29.78,5,1,7,0.00
2013-3-26,46,38,33,35,30,26,81,74,62,30.13,29.97,4,0,5,0.00
2013-3-27,45,37,31,32,28,25,79,68,54,30.20,30.11,6,1,7,0.00
2013-3-28,45,36,28,31,26,21,79,69,56,30.24,30.19,6,1,11,0.00
2013-3-29,47,35,25,30,24,19,82,67,49,30.25,30.18,3,0,3,0.00
2013-3-30,50,38,28,36,26,19,80,61,42,30.18,29.76,7,1,10,0.16
2013-3-31,44,39,30,38,32,-100,85,79,67,29.77,29.57,9,1,11,0.28
2013-4-1,35,30,26,21,18,14,68,61,52,30.06,29.76,4,1,7,0.00
2013-4-2,40,32,26,20,17,13,63,54,45,30.22,30.02,6,0,6,0.00
2013-4-3,40,32,28,21,18,14,64,55,46,30.40,30.21,2,0,4,0.00
2013-4-4,48,38,28,35,26,16,79,64,50,30.23,29.89,8,2,18,0.02
2013-4-5,39,34,29,30,23,18,79,63,50,30.21,29.99,7,1,7,0.02
2013-4-6,47,37,30,37,26,18,73,63,55,30.16,29.51,13,3,19,0.02
2013-4-7,48,41,32,43,34,26,84,76,61,29.99,29.41,6,1,7,0.18
2013-4-8,41,37,32,36,31,26,84,79,71,29.97,29.71,5,0,11,0.22
2013-4-9,41,38,34,37,34,30,86,85,83,30.08,29.95,4,0,5,0.36
2013-4-10,41,36,33,35,31,29,86,82,74,30.09,29.99,2,0,3,0.40
2013-4-11,37,34,31,30,27,24,84,73,60,30.06,29.75,8,2,10,0.22
2013-4-12,32,31,31,28,27,27,85,85,85,29.69,29.59,0,0,0,0.20
2013-4-22,45,42,39,31,30,29,69,64,58,30.12,30.06,1,0,3,0.00
2013-4-23,60,44,35,47,35,29,82,70,56,30.06,29.83,7,1,8,0.36
2013-4-24,48,40,34,33,29,25,80,65,44,29.94,29.88,6,0,6,0.08
2013-4-25,41,38,37,32,28,25,74,65,60,29.94,29.85,4,1,6,0.00
2013-4-27,67,60,49,47,41,35,59,51,48,30.12,30.04,4,1,6,0.12
2013-4-28,67,53,43,47,39,35,76,60,45,30.04,29.80,0,0,0,0.08
2013-4-29,64,54,46,53,47,37,84,76,64,29.83,29.77,6,0,6,0.10
2013-4-30,79,64,51,62,54,47,86,73,52,29.83,29.70,8,0,11,0.18
2013-5-1,75,62,44,61,50,35,78,65,56,30.26,29.83,7,0,7,0.02
2013-5-2,55,45,39,42,36,33,80,71,60,30.27,30.18,4,0,6,0.00
2013-5-3,52,45,38,42,38,33,83,76,66,30.21,30.02,1,0,3,0.12
2013-5-4,68,54,40,53,42,35,84,67,51,30.07,30.01,2,0,2,0.02
2013-5-5,73,55,46,50,39,35,68,55,44,30.08,30.02,2,0,5,0.00
2013-5-6,46,42,40,35,34,33,77,73,65,30.04,30.02,0,0,0,0.00
2013-5-9,71,56,44,52,42,36,77,61,51,30.02,29.93,4,0,6,0.02
2013-5-10,44,41,40,38,35,-100,85,81,77,30.01,29.91,5,1,7,0.73
2013-5-11,48,41,35,42,35,31,86,80,70,29.91,29.70,5,1,7,0.12
2013-5-12,44,40,36,33,29,-100,77,68,57,30.06,29.81,9,2,9,0.02
2013-5-13,64,45,31,42,29,24,79,55,38,30.13,29.99,4,1,8,0.00
2013-5-14,70,52,42,46,38,27,76,58,41,29.99,29.51,13,2,18,0.00
2013-5-15,77,64,51,53,47,42,76,55,40,29.75,29.40,11,4,13,0.00
2013-5-16,76,53,46,50,18,-100,68,51,40,30.04,29.74,4,0,5,0.00
2013-5-17,48,44,42,41,37,35,79,76,68,30.12,30.03,0,0,0,0.00
2013-5-19,86,72,58,63,55,48,72,56,44,29.94,29.80,4,0,4,0.00
2013-5-20,87,71,54,70,58,44,79,64,48,29.84,29.69,9,0,9,0.00
2013-5-21,78,64,52,64,56,44,86,74,60,29.73,29.61,6,1,6,0.14
2013-5-22,58,52,48,52,47,44,86,83,77,29.73,29.65,3,0,3,0.30
2013-5-23,54,46,41,45,40,34,87,78,61,30.24,29.73,9,1,24,0.59
2013-5-24,56,46,39,38,35,33,81,67,49,30.39,30.23,4,1,6,0.02
2013-5-25,74,48,35,52,37,30,84,66,47,30.40,30.28,4,0,4,0.00
2013-5-26,74,51,37,52,38,31,82,63,47,30.33,30.19,3,0,4,0.00
2013-5-27,77,57,42,46,41,33,77,56,31,30.20,29.95,7,1,11,0.00
2013-5-28,59,56,53,53,48,43,84,75,57,29.95,29.71,5,1,9,0.06
2013-5-29,72,59,50,62,53,46,86,80,70,29.89,29.71,3,0,4,0.02
2013-5-30,89,77,59,69,64,54,86,66,51,29.88,29.79,5,0,7,0.00
2013-5-31,77,71,69,65,63,61,80,76,66,29.83,29.74,4,1,9,0.02
2013-6-1,73,65,62,63,56,52,81,73,65,29.65,29.61,1,0,1,1.81
2013-6-2,61,50,40,55,43,34,85,78,65,30.00,29.60,4,0,4,0.36
2013-6-3,75,53,37,50,42,33,86,67,41,30.10,29.99,6,1,7,0.02
2013-6-4,80,53,39,54,42,34,84,68,41,30.18,30.10,4,0,4,0.00
2013-6-5,59,53,48,52,47,42,84,79,66,30.16,30.02,6,0,9,0.06
2013-6-6,77,58,52,53,46,43,79,65,43,30.03,29.91,4,0,7,0.02
2013-6-7,69,58,50,50,46,40,82,65,47,29.96,29.89,0,0,0,0.00
2013-6-8,74,56,46,55,45,38,79,66,42,30.02,29.88,0,0,0,0.00
2013-6-9,82,66,50,61,53,42,79,64,46,30.05,29.91,4,0,6,0.00
2013-6-10,73,64,54,59,53,48,81,67,60,29.91,29.77,6,0,6,0.00
2013-6-11,84,62,52,66,54,47,86,75,51,29.86,29.78,0,0,3,0.00
2013-6-12,76,62,53,60,54,48,85,75,58,29.89,29.72,0,0,0,0.00
2013-6-13,67,59,53,55,50,46,82,74,62,30.01,29.72,3,0,4,0.00
2013-6-14,53,51,50,47,45,44,82,81,80,30.03,30.00,0,0,0,0.00
2013-6-15,72,69,64,59,58,56,80,68,61,29.93,29.78,0,0,0,0.02
2013-6-16,80,66,58,65,57,51,86,75,56,29.84,29.72,6,1,7,0.95
2013-6-17,67,60,54,55,52,48,84,75,64,29.97,29.81,4,0,5,0.02
2013-6-18,70,58,49,55,49,42,86,71,55,30.08,29.97,0,0,0,0.00
2013-6-19,85,59,45,58,46,40,84,62,40,30.13,30.06,0,0,1,0.00
2013-6-20,90,67,52,58,48,41,70,53,29,30.13,30.07,3,0,3,0.00
2013-6-22,78,66,62,63,57,54,81,73,60,30.05,29.92,2,0,2,0.00
2013-6-23,85,73,61,70,64,55,87,75,57,29.97,29.81,5,0,6,0.16
2013-6-24,85,75,69,69,65,61,81,71,59,29.96,29.84,4,0,7,0.16
2013-6-25,81,72,67,67,63,61,82,73,62,29.85,29.78,5,1,12,0.00
2013-6-26,87,71,60,69,61,55,86,73,56,29.80,29.72,1,0,3,0.00
2013-6-27,83,70,63,67,61,57,83,74,58,29.78,29.65,5,0,5,0.02
2013-6-28,79,71,62,64,61,57,84,70,59,29.60,29.57,0,0,4,0.00
2013-6-29,76,67,60,63,59,53,86,76,63,29.80,29.60,0,0,0,0.06
2013-6-30,78,64,55,60,54,49,86,70,52,30.01,29.80,0,0,0,0.06
2013-7-1,78,65,54,61,54,48,81,67,54,30.11,30.01,1,0,1,0.00
2013-7-2,71,60,49,57,49,41,76,67,60,30.12,30.05,0,0,0,0.00
2013-7-3,80,66,58,59,54,51,81,67,49,30.07,29.99,4,0,4,0.00
2013-7-4,83,68,62,65,58,54,84,72,54,30.05,29.99,1,0,6,0.00
2013-7-5,89,76,66,67,60,56,77,60,45,30.03,29.97,3,0,3,0.00
2013-7-6,90,74,67,66,59,54,74,61,43,30.01,29.94,3,0,4,0.00
2013-7-7,90,77,69,68,64,60,79,67,48,29.96,29.89,3,0,4,0.06
2013-7-8,78,69,66,72,63,-100,88,83,76,29.96,29.88,4,0,6,2.14
2013-7-9,80,70,65,70,64,61,88,82,71,29.97,29.71,6,0,6,0.26
2013-7-10,80,70,61,67,59,-100,87,73,55,29.94,29.70,3,0,5,0.26
2013-7-11,79,66,58,62,56,49,86,72,51,30.09,29.94,1,0,3,0.00
2013-7-12,85,65,55,64,55,49,85,72,49,30.14,30.06,1,0,1,0.00
2013-7-13,87,71,61,65,58,53,82,65,44,30.16,30.07,3,0,3,0.00
2013-7-14,89,73,64,68,61,54,76,66,48,30.22,30.16,3,0,6,0.00
2013-7-15,88,75,67,73,65,60,80,71,56,30.27,30.20,0,0,0,0.08
2013-7-16,95,79,68,75,68,61,81,69,51,30.25,30.17,1,0,42,0.04
2013-7-17,96,81,77,76,71,70,79,73,51,30.21,30.17,2,0,4,0.04
2013-7-18,94,88,82,75,73,70,69,61,54,30.03,29.80,8,2,9,0.00
2013-7-19,90,81,71,74,69,61,74,68,60,29.80,29.65,13,1,13,0.04
2013-7-20,78,67,60,62,54,-100,82,64,44,29.98,29.74,2,0,6,0.02
2013-7-21,76,65,55,59,53,47,79,66,52,30.00,29.89,3,0,4,0.00
2013-7-22,86,72,61,69,61,54,79,69,56,29.89,29.62,4,1,4,0.06
2013-7-23,77,68,60,65,56,47,81,65,56,29.93,29.62,6,2,9,0.02
2013-7-24,75,64,56,55,50,46,73,62,49,30.04,29.92,6,0,6,0.00
2013-7-25,82,68,53,58,52,45,76,58,42,30.04,29.94,3,0,3,0.00
2013-7-26,83,69,62,66,58,48,85,68,52,29.94,29.79,7,1,8,0.28
2013-7-27,62,59,53,57,53,48,86,82,73,29.84,29.76,3,0,5,0.26
2013-7-28,65,58,53,55,52,48,85,80,65,29.86,29.71,0,0,1,0.14
2013-7-29,71,60,56,59,54,52,87,81,64,30.13,29.86,0,0,0,0.14
2013-7-30,75,64,55,62,57,51,87,77,60,30.16,30.07,0,0,0,0.04
2013-7-31,78,68,61,65,60,55,82,75,64,30.07,29.86,4,0,4,0.00
2013-8-1,80,68,60,63,58,56,86,73,50,29.88,29.84,0,0,1,0.00
2013-8-2,78,68,62,65,59,56,84,74,61,29.89,29.78,4,0,5,0.20
2013-8-3,78,66,57,59,56,52,86,71,51,30.08,29.89,0,0,0,0.02
2013-8-4,76,64,55,58,53,46,80,67,48,30.18,30.08,1,0,6,0.02
2013-8-5,70,62,50,59,53,44,83,73,60,30.08,29.84,1,0,7,0.02
2013-8-6,79,70,62,68,61,55,82,74,67,29.85,29.75,5,0,11,0.02
2013-8-7,76,69,64,66,62,58,87,79,68,29.95,29.63,3,0,3,0.50
2013-8-8,79,65,52,61,54,47,86,69,50,30.02,29.96,0,0,1,0.30
2013-8-9,80,68,55,63,56,47,81,67,55,29.96,29.89,3,0,3,0.00
2013-8-10,79,66,53,60,54,47,85,66,48,30.11,30.01,0,0,0,0.00
2013-8-11,77,67,60,62,58,52,85,73,54,30.07,29.99,0,0,1,0.00
2013-8-12,79,65,58,65,58,52,87,77,59,30.00,29.85,7,0,7,0.22
2013-8-13,72,60,55,54,48,-100,80,67,53,30.08,29.94,8,3,14,0.22
2013-8-14,73,62,56,55,50,47,77,65,47,30.16,30.08,4,1,6,0.00
2013-8-15,79,59,56,57,40,-100,84,61,43,30.08,30.03,5,0,5,0.00
2013-8-16,83,67,56,64,53,-100,85,66,45,30.16,30.07,3,0,4,0.00
2013-8-17,85,68,56,59,54,50,81,62,38,30.21,30.14,3,0,6,0.00
2013-8-18,85,70,61,61,54,-100,71,59,43,30.18,30.04,2,0,4,0.00
2013-8-19,84,68,64,64,48,-100,81,66,49,30.05,29.95,4,1,4,0.00
2013-8-20,88,75,68,68,61,-100,79,66,51,30.03,29.96,5,1,8,0.00
2013-8-21,89,78,69,70,65,61,79,64,52,30.00,29.85,6,1,8,0.32
2013-8-22,78,71,61,67,63,55,86,76,62,30.10,29.90,0,0,1,0.40
2013-8-23,80,67,56,65,58,52,87,75,59,30.17,30.10,4,0,4,0.00
2013-8-24,84,69,58,62,57,52,81,67,45,30.23,30.15,3,0,5,0.00
2013-8-25,87,76,63,68,61,-100,74,61,54,30.15,29.97,8,2,18,0.00
2013-8-26,88,77,71,72,67,64,84,71,57,30.03,29.91,5,1,6,0.06
2013-8-27,73,70,69,69,66,63,87,84,78,29.97,29.81,0,0,0,1.01
2013-8-28,79,75,67,72,67,62,85,78,73,30.01,29.96,0,0,0,0.06
2013-8-29,88,74,65,75,67,61,88,78,61,30.05,29.93,0,0,0,0.00
2013-8-30,81,74,70,72,66,63,83,79,72,29.93,29.75,0,0,0,0.02
2013-8-31,81,70,63,68,63,59,87,79,63,29.86,29.78,0,0,0,0.02
2013-9-1,82,70,63,69,61,-100,87,77,64,29.83,29.65,0,0,0,0.02
2013-9-2,65,61,59,58,53,51,79,76,71,29.92,29.76,0,0,0,0.00
2013-9-3,74,65,58,59,55,51,81,70,58,29.99,29.91,0,0,0,0.00
2013-9-4,71,64,59,62,56,48,84,76,63,30.12,29.90,0,0,0,0.00
2013-9-5,71,60,51,50,46,43,74,62,48,30.28,30.12,0,0,0,0.00
2013-9-6,77,64,49,62,52,40,75,65,57,30.20,29.91,0,0,0,0.00
2013-9-7,77,72,67,69,65,55,84,78,60,29.98,29.83,0,0,0,0.40
2013-9-8,75,65,57,61,54,-100,83,71,50,30.10,29.98,0,0,0,0.02
2013-9-9,78,69,60,70,61,52,82,76,69,30.00,29.68,0,0,0,0.00
2013-9-10,88,80,71,72,68,64,79,69,56,29.94,29.68,0,0,0,0.00
2013-9-11,77,71,65,68,64,61,87,80,73,29.94,29.87,0,0,0,1.18
2013-9-12,72,64,55,64,55,46,87,74,60,30.05,29.88,0,0,0,0.04
2013-9-13,63,56,49,48,45,40,81,68,56,30.15,30.04,0,0,0,0.00
2013-9-14,68,56,44,54,46,39,83,71,60,30.11,29.96,0,0,0,0.00
2013-9-15,61,58,53,56,50,-100,85,79,74,30.17,29.93,0,0,0,0.16
2013-9-16,62,53,45,47,43,39,81,69,55,30.37,30.17,0,0,0,0.02
2013-9-17,68,54,44,49,44,39,83,72,51,30.34,30.12,0,0,0,0.00
2013-9-18,68,54,49,48,47,44,84,75,69,30.12,29.88,0,0,0,0.00
2013-9-19,78,71,65,69,64,58,87,80,71,29.90,29.69,0,0,0,0.71
2013-9-20,72,68,63,66,63,57,87,83,79,29.71,29.63,0,0,0,0.04
2013-9-21,62,57,52,56,49,43,83,74,65,29.89,29.69,0,0,0,0.04
2013-9-22,57,52,50,44,41,-100,77,67,60,30.06,29.88,0,0,0,0.02
2013-9-23,65,52,43,48,43,38,84,73,55,30.14,30.06,0,0,0,0.00
2013-9-24,69,55,47,53,46,42,85,75,55,30.09,29.97,0,0,0,0.00
2013-9-25,71,57,46,59,49,42,86,77,52,30.00,29.95,0,0,0,0.00
2013-9-26,72,59,48,59,52,44,86,78,63,30.07,29.97,0,0,0,0.00
2013-9-27,79,62,53,57,52,48,85,71,44,30.15,30.07,0,0,0,0.00
2013-9-28,80,68,58,60,55,51,78,64,48,30.08,29.78,6,0,10,0.00
2013-9-29,73,59,48,59,50,-100,85,74,52,30.00,29.78,4,0,4,0.32
2013-9-30,70,57,46,54,48,42,86,74,53,29.96,29.80,4,0,4,0.02
2013-10-1,68,66,58,61,58,48,80,77,69,29.82,29.77,1,0,6,0.00
2013-10-2,73,62,53,58,50,43,79,64,43,30.04,29.82,1,0,4,0.00
2013-10-3,69,61,53,59,51,42,86,71,54,30.01,29.86,4,1,10,0.57
2013-10-4,64,61,59,60,57,54,87,87,86,30.01,29.84,3,0,7,0.55
2013-10-5,67,61,57,60,56,53,88,85,79,30.01,29.75,13,2,17,0.53
2013-10-6,64,60,52,60,55,48,88,86,78,29.75,29.59,8,1,10,0.53
2013-10-7,61,54,50,51,48,45,87,80,67,30.01,29.54,5,1,10,0.00
2013-10-8,69,56,46,54,48,42,86,77,53,30.12,30.01,3,0,6,0.00
2013-10-9,71,62,54,56,52,47,80,69,57,30.18,30.08,4,0,6,0.00
2013-10-10,70,56,50,57,49,44,84,77,63,30.15,30.06,2,0,3,0.04
2013-10-11,72,61,50,57,51,45,83,70,54,30.08,29.98,3,0,3,0.04
2013-10-12,76,63,54,60,53,45,84,70,56,30.00,29.87,4,1,7,0.10
2013-10-13,61,55,50,51,45,-100,82,71,63,30.34,30.00,2,0,2,0.10
2013-10-14,62,51,44,45,42,39,83,71,51,30.39,30.22,3,0,3,0.00
2013-10-15,60,53,45,55,46,40,87,78,69,30.22,29.66,13,2,13,0.38
2013-10-16,59,53,50,55,47,43,87,82,78,29.82,29.64,6,1,7,0.32
2013-10-17,52,48,43,44,41,37,83,78,74,29.83,29.70,3,0,3,0.02
2013-10-18,59,49,42,51,44,37,86,81,72,29.77,29.70,3,0,4,0.48
2013-10-19,52,46,41,44,40,36,87,81,63,29.77,29.65,3,0,6,0.81
2013-10-20,52,46,41,42,38,-100,86,78,64,29.78,29.59,4,0,8,0.28
2013-10-21,50,45,38,45,37,27,86,74,63,29.75,29.59,6,1,34,0.24
2013-10-22,49,41,36,40,33,27,84,74,66,29.84,29.67,9,2,9,0.30
2013-10-23,49,40,38,35,32,30,84,72,57,29.84,29.79,8,1,10,0.32
2013-10-24,49,42,38,36,33,30,80,71,58,30.10,29.83,6,1,8,0.04
2013-10-25,49,45,40,36,33,31,79,64,58,30.19,29.72,8,2,16,0.04
2013-10-26,51,47,42,40,37,32,78,66,61,29.93,29.58,11,2,12,0.02
2013-10-27,50,45,42,38,32,-100,65,62,57,29.93,29.81,6,1,8,0.02
2013-10-28,50,42,35,38,30,-100,72,65,56,30.40,29.92,9,2,12,0.00
2013-10-29,44,37,32,31,28,25,76,68,56,30.42,30.15,4,0,7,0.00
2013-10-30,56,46,40,47,40,32,83,77,69,30.15,29.76,1,0,1,0.14
2013-10-31,62,56,52,58,52,47,88,86,83,29.78,29.03,2,0,2,0.99
2013-11-1,54,49,45,50,44,40,87,85,82,29.64,29.01,3,0,3,0.87
2013-11-2,46,43,39,41,36,33,85,78,69,30.09,29.64,6,2,7,0.02
2013-11-3,48,40,35,34,30,-100,78,70,59,30.29,30.09,7,1,8,0.00
2013-11-4,53,45,38,38,33,30,76,64,50,30.29,30.06,7,2,14,0.00
2013-11-5,57,52,50,47,45,36,84,75,58,30.21,29.94,5,0,6,0.02
2013-11-6,54,48,39,50,43,32,87,84,76,29.97,29.61,6,1,7,0.04
2013-11-7,40,39,37,32,29,28,75,69,65,30.04,29.97,6,1,7,0.00
2013-11-8,44,40,37,30,28,27,70,64,55,30.17,29.99,6,1,6,0.00
2013-11-9,49,43,40,42,35,-100,82,74,65,29.97,29.60,10,4,15,0.00
2013-11-10,44,43,42,34,32,30,72,66,61,30.16,29.80,11,3,11,0.00
2013-11-11,45,35,30,34,27,20,82,71,61,30.32,29.94,9,2,11,0.02
2013-11-12,33,30,29,24,20,18,79,66,58,30.52,30.34,5,2,9,0.00
2013-11-13,42,36,29,31,25,18,74,66,61,30.39,29.86,13,4,25,0.02
2013-11-14,46,43,41,37,32,28,79,65,60,29.91,29.78,11,4,16,0.02
2013-11-15,50,44,36,40,36,32,85,76,66,29.87,29.79,6,1,6,0.02
2013-11-16,55,47,40,51,40,-100,85,78,76,29.89,29.46,10,1,10,0.06
2013-11-17,60,55,44,55,51,39,87,85,83,29.47,29.03,10,2,15,0.48
2013-11-18,44,37,34,39,28,23,83,68,64,30.08,29.29,9,2,13,0.02
2013-11-19,39,34,31,27,24,23,75,66,59,30.30,30.08,0,0,4,0.00
2013-11-20,47,39,34,28,26,23,66,59,47,30.25,30.11,5,1,7,0.00
2013-11-21,44,41,38,39,35,28,84,78,60,30.14,30.09,1,0,1,0.00
2013-11-22,42,34,31,38,28,22,85,79,65,30.32,30.13,6,0,6,0.00
2013-11-23,32,24,20,22,14,-100,71,65,63,30.50,30.21,8,2,9,0.00
2013-11-24,30,22,20,20,12,10,69,64,62,30.50,30.06,7,1,10,0.00
2013-11-25,36,32,30,30,25,20,84,74,61,30.06,29.82,14,6,19,0.02
2013-11-26,36,32,23,29,25,15,80,76,71,30.03,29.86,6,2,13,0.02
2013-11-27,29,26,24,20,17,15,73,68,64,30.12,29.97,8,2,14,0.00
2013-11-28,27,25,23,21,19,15,84,78,65,30.34,30.12,0,0,1,0.00
2013-11-29,34,24,13,26,19,8,84,79,73,30.52,30.34,6,0,6,0.00
2013-12-1,38,35,33,31,29,28,82,79,74,30.05,29.96,5,0,5,0.02
2013-12-2,40,35,31,30,28,25,82,76,66,29.95,29.81,5,0,6,0.00
2013-12-3,32,31,31,27,25,23,85,76,71,29.88,29.80,7,2,13,0.00
2013-12-4,49,37,31,46,33,27,88,86,85,29.82,29.36,12,3,16,0.02
2013-12-5,49,33,22,46,25,13,88,73,66,30.07,29.36,15,5,24,0.02
2013-12-6,24,21,20,14,12,11,73,68,62,30.32,30.07,8,1,11,0.00
2013-12-7,21,19,18,11,8,-100,69,63,58,30.51,30.32,8,2,8,0.00
2013-12-8,22,19,16,16,11,6,81,71,63,30.49,29.95,7,1,9,0.00
2013-12-9,29,22,12,23,16,4,83,76,68,29.98,29.73,16,3,19,0.00
2013-12-10,17,15,11,12,8,4,79,73,69,30.03,29.74,9,1,10,0.00
2013-12-11,15,14,13,8,6,4,72,68,64,30.30,30.05,8,1,12,0.00
2013-12-12,21,16,11,12,8,3,76,72,67,30.30,30.03,9,2,13,0.00
2013-12-13,23,19,12,14,10,2,70,67,64,30.30,30.03,7,0,8,0.00
2013-12-14,21,17,11,16,9,-100,80,73,64,30.31,29.85,8,1,9,0.00
2013-12-15,23,21,19,18,14,11,82,76,69,29.92,29.70,8,1,9,0.02
2013-12-16,22,19,16,14,12,9,78,73,66,30.07,29.87,11,1,11,0.02
2013-12-17,29,24,18,23,18,12,82,79,76,29.86,29.73,3,0,3,0.00
2013-12-18,28,26,24,22,18,16,77,72,68,29.97,29.66,4,0,6,0.00
2013-12-19,34,30,27,27,24,20,78,76,74,30.02,29.66,6,1,6,0.00
2013-12-20,27,25,23,21,20,18,82,80,76,29.94,29.78,7,0,13,0.00
2013-12-21,32,28,26,26,22,-100,84,80,77,29.89,29.75,6,0,6,0.00
2013-12-22,28,24,21,22,20,15,84,81,78,29.99,29.71,6,1,8,0.00
2013-12-23,25,22,19,18,15,11,81,76,71,30.27,29.99,4,0,4,0.00
2013-12-24,19,17,13,13,10,7,78,74,69,30.41,30.25,6,0,6,0.04
2013-12-25,25,22,18,19,16,12,82,78,75,30.30,29.96,8,1,9,0.02
2013-12-26,26,24,21,19,17,14,82,75,68,30.15,29.93,6,0,6,0.10
2013-12-27,37,28,19,31,22,13,80,78,75,30.17,29.82,9,1,20,0.02
2013-12-28,43,37,34,34,29,-100,83,77,70,29.93,29.68,4,0,9,0.02
2013-12-29,39,27,15,33,20,8,83,76,70,30.03,29.66,6,1,9,0.00
2013-12-30,17,15,13,8,6,5,72,69,65,30.19,30.03,5,0,6,0.00
2013-12-31,13,12,10,4,3,1,74,69,65,30.28,29.99,6,1,11,0.00
2014-1-1,17,13,10,8,5,2,73,68,63,30.35,30.27,5,1,7,0.00
2014-1-2,16,12,10,9,4,1,75,68,65,30.31,30.22,4,0,13,0.00